Time;durP1;ratioP1;P1;durP2;ratioP2;P2;SDS_P1;SDS_P2;PMS_P1;PMS_P2;Temp;Humidity;BMP_temperature;BMP_pressure;BME280_temperature;BME280_humidity;BME280_pressure;Samples;Min_cycle;Max_cycle;Signal;HPM_P1;HPM_P2
2022/01/16 00:04:46;;;;;;;5.10;3.47;;;16.50;49.30;;;;;;4968924;28;46200;-83
2022/01/16 00:07:17;;;;;;;7.03;3.88;;;16.50;49.20;;;;;;4986314;28;45229;-83
2022/01/16 00:09:46;;;;;;;5.35;3.70;;;16.50;49.00;;;;;;4986021;28;45175;-83
2022/01/16 00:12:23;;;;;;;6.15;3.97;;;16.50;49.40;;;;;;4985772;28;45160;-82
2022/01/16 00:14:52;;;;;;;5.47;4.00;;;16.50;48.90;;;;;;4985728;28;47665;-83
2022/01/16 00:17:27;;;;;;;4.82;3.20;;;16.50;48.70;;;;;;4986094;28;45095;-83
2022/01/16 00:19:57;;;;;;;4.45;3.67;;;16.50;48.90;;;;;;4984422;28;45238;-83
2022/01/16 00:22:27;;;;;;;4.65;3.50;;;16.50;48.90;;;;;;4988196;28;45230;-82
2022/01/16 00:24:57;;;;;;;5.85;3.88;;;16.50;49.00;;;;;;4985206;28;46619;-83
2022/01/16 00:27:24;;;;;;;4.78;3.92;;;16.50;49.20;;;;;;4986301;28;45806;-82
2022/01/16 00:29:53;;;;;;;5.57;4.20;;;16.50;48.90;;;;;;4973895;28;45105;-82
2022/01/16 00:32:23;;;;;;;6.13;4.03;;;16.50;48.90;;;;;;4968793;28;45143;-82
2022/01/16 00:34:52;;;;;;;4.10;3.35;;;16.50;49.20;;;;;;4978212;28;47647;-82
2022/01/16 00:37:19;;;;;;;4.90;3.58;;;16.50;50.70;;;;;;4983161;28;45140;-82
2022/01/16 00:39:47;;;;;;;4.50;3.67;;;16.50;50.70;;;;;;4969751;28;44858;-82
2022/01/16 00:42:17;;;;;;;5.47;4.00;;;16.50;50.80;;;;;;4985463;28;45293;-83
2022/01/16 00:44:44;;;;;;;5.50;4.38;;;16.50;50.80;;;;;;4981212;28;46370;-83
2022/01/16 00:47:12;;;;;;;5.72;4.00;;;16.60;50.80;;;;;;4985036;28;45329;-82
2022/01/16 00:49:44;;;;;;;6.50;4.20;;;16.60;50.80;;;;;;4982461;28;45344;-83
2022/01/16 00:52:14;;;;;;;5.15;3.95;;;16.60;50.80;;;;;;4984914;28;45279;-83
2022/01/16 00:54:42;;;;;;;5.47;4.32;;;16.60;50.80;;;;;;4984836;28;48409;-83
2022/01/16 00:57:11;;;;;;;6.30;4.68;;;16.60;50.90;;;;;;4977364;28;45369;-83
2022/01/16 00:59:40;;;;;;;6.55;4.68;;;16.70;51.20;;;;;;4977677;28;45310;-83
2022/01/16 01:02:10;;;;;;;7.28;4.80;;;16.70;52.20;;;;;;4983788;28;45390;-82
2022/01/16 01:04:38;;;;;;;7.47;4.65;;;16.70;50.50;;;;;;4985108;28;47697;-83
2022/01/16 01:07:17;;;;;;;7.35;4.90;;;16.60;50.20;;;;;;4983922;28;45269;-84
2022/01/16 01:09:51;;;;;;;8.35;5.00;;;16.60;50.10;;;;;;4985303;28;45041;-83
2022/01/16 01:12:26;;;;;;;6.97;4.85;;;16.70;49.50;;;;;;4984311;28;45170;-83
2022/01/16 01:15:06;;;;;;;6.88;4.80;;;16.60;49.70;;;;;;4986977;28;48072;-83
2022/01/16 01:17:37;;;;;;;6.90;4.93;;;16.60;49.60;;;;;;4990246;28;45269;-83
2022/01/16 01:20:06;;;;;;;7.07;4.68;;;16.60;49.40;;;;;;4977561;28;45347;-83
2022/01/16 01:22:35;;;;;;;6.85;4.85;;;16.60;49.20;;;;;;4981007;28;45542;-83
2022/01/16 01:25:02;;;;;;;6.97;4.85;;;16.60;49.20;;;;;;4977456;28;47613;-83
2022/01/16 01:27:33;;;;;;;6.68;4.97;;;16.60;49.20;;;;;;4978368;28;45261;-83
2022/01/16 01:30:05;;;;;;;7.25;5.13;;;16.60;49.10;;;;;;4978466;28;45353;-83
2022/01/16 01:32:33;;;;;;;7.68;5.07;;;16.60;48.80;;;;;;4982362;28;45247;-81
2022/01/16 01:35:01;;;;;;;8.02;5.20;;;16.60;48.80;;;;;;4980928;28;47668;-83
2022/01/16 01:37:28;;;;;;;6.93;4.82;;;16.60;48.80;;;;;;4983534;28;45182;-82
2022/01/16 01:39:56;;;;;;;8.48;5.22;;;16.60;48.60;;;;;;4979836;28;45119;-82
2022/01/16 01:42:30;;;;;;;6.32;4.25;;;16.60;48.60;;;;;;4973362;28;45096;-82
2022/01/16 01:53:13;;;;;;;7.32;4.68;;;16.60;48.20;;;;;;4980789;28;45149;-83
2022/01/16 01:55:43;;;;;;;5.95;4.05;;;16.60;49.60;;;;;;4978316;28;47486;-83
2022/01/16 01:58:14;;;;;;;6.43;4.65;;;16.60;48.90;;;;;;4976507;28;44782;-84
2022/01/16 02:00:41;;;;;;;6.55;4.38;;;16.60;49.50;;;;;;4982505;28;45174;-84
2022/01/16 02:03:15;;;;;;;5.97;4.30;;;16.60;48.60;;;;;;4978859;28;45189;-83
2022/01/16 02:05:44;;;;;;;6.88;4.72;;;16.60;48.60;;;;;;4977889;28;45184;-83
2022/01/16 02:08:12;;;;;;;6.38;4.72;;;16.60;48.30;;;;;;4974282;28;45288;-83
2022/01/16 02:10:42;;;;;;;7.15;4.60;;;16.60;48.30;;;;;;4973358;28;45229;-83
2022/01/16 02:13:20;;;;;;;7.30;4.78;;;16.60;48.70;;;;;;4975743;28;45079;-83
2022/01/16 02:30:32;;;;;;;8.48;5.05;;;16.60;48.30;;;;;;4971895;28;44843;-84
2022/01/16 02:35:23;;;;;;;6.78;4.72;;;16.60;48.10;;;;;;4992034;28;45145;-83
2022/01/16 02:37:50;;;;;;;7.85;4.63;;;16.50;47.80;;;;;;4982224;28;48397;-82
2022/01/16 02:40:24;;;;;;;7.90;4.90;;;16.50;47.80;;;;;;4978388;28;45072;-83
2022/01/16 02:42:52;;;;;;;7.82;5.10;;;16.50;47.80;;;;;;4978530;28;44973;-84
2022/01/16 02:45:31;;;;;;;9.07;5.13;;;16.50;49.60;;;;;;4980086;28;45248;-84
2022/01/16 02:48:00;;;;;;;8.75;5.38;;;16.50;47.80;;;;;;4979685;28;47625;-84
2022/01/16 02:50:28;;;;;;;6.93;4.70;;;16.50;47.90;;;;;;4981954;28;44736;-84
2022/01/16 02:52:55;;;;;;;7.03;4.55;;;16.60;47.90;;;;;;4982395;28;45184;-83
2022/01/16 02:55:24;;;;;;;8.82;5.20;;;16.60;47.80;;;;;;4976647;28;44987;-83
2022/01/16 02:57:54;;;;;;;7.90;5.32;;;16.60;47.80;;;;;;4981995;28;49055;-83
2022/01/16 03:00:23;;;;;;;8.00;5.28;;;16.60;48.00;;;;;;4982846;28;45246;-83
2022/01/16 03:02:52;;;;;;;9.50;5.65;;;16.60;47.40;;;;;;4982792;28;45197;-84
2022/01/16 03:05:19;;;;;;;9.75;5.68;;;16.60;47.40;;;;;;4981909;28;45633;-84
2022/01/16 03:07:46;;;;;;;8.70;5.60;;;16.60;47.30;;;;;;4982828;28;47153;-84
2022/01/16 03:13:01;;;;;;;9.55;6.07;;;16.60;47.40;;;;;;4974937;28;45154;-84
2022/01/16 03:15:29;;;;;;;8.43;5.75;;;16.60;47.40;;;;;;4982675;28;45302;-83
2022/01/16 03:23:33;;;;;;;9.02;5.63;;;16.60;48.50;;;;;;5000985;28;45152;-84
2022/01/16 03:26:04;;;;;;;8.88;5.63;;;16.60;47.20;;;;;;4989911;28;44838;-84
2022/01/16 03:28:38;;;;;;;10.68;6.32;;;16.60;47.10;;;;;;4989097;28;45536;-84
2022/01/16 03:31:09;;;;;;;11.00;6.50;;;16.60;47.90;;;;;;4974328;28;45474;-84
2022/01/16 03:33:37;;;;;;;12.85;7.43;;;16.50;47.10;;;;;;4979904;28;44752;-84
2022/01/16 03:36:06;;;;;;;13.00;6.75;;;16.50;47.60;;;;;;4990728;28;45300;-84
2022/01/16 03:38:35;;;;;;;11.68;6.75;;;16.60;47.40;;;;;;4985981;28;47398;-84
2022/01/16 03:41:02;;;;;;;12.88;7.35;;;16.50;47.10;;;;;;4979516;28;45372;-84
2022/01/16 03:43:32;;;;;;;11.52;7.07;;;16.50;47.30;;;;;;4986339;28;45278;-83
2022/01/16 03:46:05;;;;;;;11.80;8.05;;;16.50;47.20;;;;;;4986689;28;44931;-83
2022/01/16 03:48:32;;;;;;;12.63;8.05;;;16.50;47.30;;;;;;4986155;28;48108;-84
2022/01/16 03:51:03;;;;;;;11.30;7.50;;;16.60;48.10;;;;;;4990019;28;45172;-85
2022/01/16 03:53:32;;;;;;;11.13;7.05;;;16.60;47.50;;;;;;5006089;28;45222;-84
2022/01/16 03:56:02;;;;;;;12.60;7.60;;;16.60;47.70;;;;;;5006159;28;45005;-84
2022/01/16 03:58:37;;;;;;;14.98;7.82;;;16.60;47.20;;;;;;5004206;28;45281;-83
2022/01/16 04:01:07;;;;;;;14.30;8.27;;;16.60;47.00;;;;;;4997355;28;45100;-84
2022/01/16 04:03:35;;;;;;;13.05;7.53;;;16.60;47.40;;;;;;5005479;28;45132;-83
2022/01/16 04:06:05;;;;;;;15.90;8.68;;;16.60;47.10;;;;;;4998454;28;45161;-84
2022/01/16 04:08:33;;;;;;;13.13;7.70;;;16.60;47.20;;;;;;4985906;28;47055;-83
2022/01/16 04:11:01;;;;;;;14.25;7.88;;;16.60;48.10;;;;;;4985675;28;45186;-84
2022/01/16 04:13:31;;;;;;;13.75;8.00;;;16.60;46.90;;;;;;4985697;28;45293;-83
2022/01/16 04:16:00;;;;;;;14.20;8.98;;;16.60;47.20;;;;;;4986248;28;45005;-83
2022/01/16 04:18:29;;;;;;;13.57;8.10;;;16.60;47.10;;;;;;4998018;28;45294;-84
2022/01/16 04:21:11;;;;;;;15.10;8.95;;;16.60;47.20;;;;;;5004641;28;46014;-84
2022/01/16 04:23:40;;;;;;;16.38;9.65;;;16.60;47.20;;;;;;5006143;28;44781;-83
2022/01/16 04:26:07;;;;;;;14.77;8.77;;;16.60;47.30;;;;;;5001918;28;45131;-84
2022/01/16 04:28:37;;;;;;;14.27;8.65;;;16.60;47.20;;;;;;4985346;28;48192;-84
2022/01/16 04:31:06;;;;;;;17.10;9.23;;;16.60;47.20;;;;;;4984717;28;45301;-84
2022/01/16 04:33:35;;;;;;;15.68;9.63;;;16.60;47.00;;;;;;4985842;28;45312;-84
2022/01/16 04:36:05;;;;;;;15.95;9.07;;;16.60;47.30;;;;;;4984806;28;45335;-83
2022/01/16 04:38:44;;;;;;;18.77;9.85;;;16.60;47.50;;;;;;4984574;28;46550;-84
2022/01/16 04:44:01;;;;;;;16.40;9.65;;;16.60;47.10;;;;;;4986067;28;45158;-84
2022/01/16 04:46:32;;;;;;;16.33;9.02;;;16.60;48.10;;;;;;4986056;28;45358;-83
2022/01/16 04:49:09;;;;;;;16.23;9.20;;;16.60;47.20;;;;;;4984948;28;47378;-83
2022/01/16 04:51:40;;;;;;;16.42;10.05;;;16.60;47.20;;;;;;4985427;28;45080;-83
2022/01/16 04:54:12;;;;;;;17.48;9.85;;;16.60;47.10;;;;;;4979902;28;44826;-83
2022/01/16 04:56:41;;;;;;;14.80;8.63;;;16.60;47.40;;;;;;4985676;28;45255;-83
2022/01/16 04:59:09;;;;;;;15.38;9.68;;;16.70;47.10;;;;;;4984812;28;45749;-83
2022/01/16 05:01:37;;;;;;;16.90;9.63;;;17.30;48.10;;;;;;4989395;28;44834;-83
2022/01/16 05:04:07;;;;;;;15.40;9.13;;;16.60;47.40;;;;;;4992765;28;45156;-85
2022/01/16 05:06:34;;;;;;;15.77;9.73;;;16.70;47.70;;;;;;4983407;28;45256;-84
2022/01/16 05:09:04;;;;;;;17.40;9.60;;;16.70;47.40;;;;;;4985227;28;47388;-83
2022/01/16 05:11:34;;;;;;;14.73;9.02;;;16.70;47.40;;;;;;4984539;28;45111;-83
2022/01/16 05:16:47;;;;;;;13.48;8.65;;;16.60;47.60;;;;;;5217329;22;46043;-79
2022/01/16 05:19:19;;;;;;;12.50;8.50;;;16.60;47.20;;;;;;4987873;28;45645;-79
2022/01/16 05:21:47;;;;;;;16.75;9.43;;;16.60;47.40;;;;;;5007803;28;45279;-79
2022/01/16 05:24:15;;;;;;;15.55;8.82;;;16.60;47.10;;;;;;4987446;28;45519;-79
2022/01/16 05:26:45;;;;;;;11.98;8.40;;;16.60;47.20;;;;;;4989479;28;45276;-79
2022/01/16 05:29:13;;;;;;;15.60;9.27;;;16.60;47.10;;;;;;4998033;28;47739;-78
2022/01/16 05:31:44;;;;;;;17.08;9.38;;;16.60;47.30;;;;;;4990023;28;45236;-78
2022/01/16 05:34:14;;;;;;;16.65;9.30;;;16.60;47.40;;;;;;4987296;28;45181;-79
2022/01/16 05:36:46;;;;;;;13.70;8.90;;;16.60;47.30;;;;;;4990334;28;45508;-78
2022/01/16 05:39:17;;;;;;;13.60;8.73;;;16.60;47.70;;;;;;4999601;28;45212;-79
2022/01/16 05:41:45;;;;;;;15.05;9.48;;;16.50;47.30;;;;;;4990400;28;45860;-78
2022/01/16 05:44:14;;;;;;;15.40;9.02;;;16.60;47.70;;;;;;4988837;28;46401;-78
2022/01/16 05:46:45;;;;;;;15.57;8.95;;;16.60;47.40;;;;;;4998186;28;45666;-78
2022/01/16 05:49:12;;;;;;;14.52;9.18;;;16.60;47.30;;;;;;4989672;28;47482;-78
2022/01/16 05:51:39;;;;;;;14.73;9.20;;;16.60;47.30;;;;;;4990982;28;45234;-79
2022/01/16 05:54:08;;;;;;;13.38;8.75;;;16.60;47.10;;;;;;4989756;28;45410;-78
2022/01/16 05:56:36;;;;;;;13.70;9.52;;;16.60;47.30;;;;;;4989508;28;45582;-78
2022/01/16 05:59:03;;;;;;;16.50;9.35;;;16.60;47.20;;;;;;4998936;28;47425;-78
2022/01/16 06:01:31;;;;;;;16.25;10.05;;;16.60;47.10;;;;;;5003085;28;45926;-78
2022/01/16 06:03:58;;;;;;;14.75;9.43;;;16.70;47.30;;;;;;4989883;28;45297;-78
2022/01/16 06:06:25;;;;;;;14.05;9.35;;;16.60;47.10;;;;;;4986087;28;45387;-77
2022/01/16 06:08:57;;;;;;;13.98;8.77;;;16.60;47.20;;;;;;4983428;28;47242;-79
2022/01/16 06:11:26;;;;;;;15.15;9.10;;;16.60;47.40;;;;;;4988880;28;45273;-78
2022/01/16 06:13:54;;;;;;;12.73;8.48;;;16.50;47.70;;;;;;4988611;28;45217;-78
2022/01/16 06:16:21;;;;;;;14.32;9.45;;;16.50;47.70;;;;;;4999146;28;45244;-79
2022/01/16 06:18:54;;;;;;;13.05;8.60;;;16.50;47.80;;;;;;4994127;28;47101;-79
2022/01/16 06:21:23;;;;;;;14.73;9.50;;;16.30;49.00;;;;;;4998513;28;46340;-79
2022/01/16 06:23:58;;;;;;;15.20;9.07;;;16.50;48.20;;;;;;4989094;28;45585;-79
2022/01/16 06:26:27;;;;;;;14.75;9.27;;;16.50;47.70;;;;;;4998054;28;45454;-78
2022/01/16 06:28:57;;;;;;;15.55;9.85;;;16.50;47.90;;;;;;4989807;28;47763;-78
2022/01/16 06:31:31;;;;;;;14.57;9.85;;;16.50;47.70;;;;;;4999477;28;45303;-78
2022/01/16 06:34:06;;;;;;;14.52;9.30;;;16.50;47.70;;;;;;4997151;28;45313;-79
2022/01/16 06:36:38;;;;;;;16.35;9.75;;;16.50;47.50;;;;;;5009655;28;45399;-79
2022/01/16 06:39:08;;;;;;;13.52;9.15;;;16.50;48.00;;;;;;5003208;28;46233;-79
2022/01/16 06:41:39;;;;;;;16.63;9.48;;;16.50;48.80;;;;;;4983104;28;45301;-80
2022/01/16 06:44:07;;;;;;;16.30;10.32;;;16.50;48.00;;;;;;4990413;28;45264;-79
2022/01/16 06:46:35;;;;;;;13.98;9.30;;;16.50;47.50;;;;;;4988985;28;45221;-78
2022/01/16 06:49:06;;;;;;;14.27;9.40;;;16.60;47.50;;;;;;4993883;28;45327;-78
2022/01/16 06:51:33;;;;;;;15.35;9.07;;;16.60;47.40;;;;;;4998213;28;45454;-78
2022/01/16 06:54:03;;;;;;;14.50;9.45;;;16.60;47.40;;;;;;5001436;28;45232;-78
2022/01/16 06:56:32;;;;;;;12.43;8.50;;;16.60;47.40;;;;;;5008703;28;45281;-78
2022/01/16 06:59:04;;;;;;;15.52;10.10;;;16.60;47.30;;;;;;4990522;28;47572;-78
2022/01/16 07:01:31;;;;;;;14.82;9.63;;;16.60;47.30;;;;;;4988570;28;45290;-77
2022/01/16 07:03:59;;;;;;;14.30;8.93;;;16.60;47.30;;;;;;4989107;28;45395;-77
2022/01/16 07:06:27;;;;;;;13.73;8.50;;;16.60;47.50;;;;;;4991738;28;45355;-78
2022/01/16 07:08:54;;;;;;;15.20;10.32;;;16.50;47.50;;;;;;4993418;28;46534;-78
2022/01/16 07:11:21;;;;;;;13.88;9.02;;;16.50;47.50;;;;;;4992004;28;45238;-78
2022/01/16 07:13:49;;;;;;;13.85;8.63;;;16.50;48.30;;;;;;4994942;28;45358;-78
2022/01/16 07:16:18;;;;;;;14.23;8.85;;;16.50;48.00;;;;;;5004029;28;45522;-79
2022/01/16 07:18:46;;;;;;;11.88;8.45;;;16.40;47.90;;;;;;4993922;28;45225;-79
2022/01/16 07:21:16;;;;;;;13.65;8.95;;;16.40;47.70;;;;;;4997955;28;45333;-79
2022/01/16 07:23:53;;;;;;;14.82;9.38;;;16.40;47.70;;;;;;4992329;28;45383;-78
2022/01/16 07:26:20;;;;;;;15.30;9.35;;;16.40;47.50;;;;;;4992023;28;45194;-78
2022/01/16 07:28:51;;;;;;;13.63;8.52;;;16.50;47.50;;;;;;4992014;28;47427;-79
2022/01/16 07:31:20;;;;;;;14.73;9.15;;;16.50;47.70;;;;;;4994633;28;45808;-78
2022/01/16 07:33:51;;;;;;;13.75;8.85;;;16.40;47.50;;;;;;4999372;28;45446;-79
2022/01/16 07:36:19;;;;;;;15.27;9.57;;;16.50;47.10;;;;;;5000893;28;45492;-78
2022/01/16 07:38:46;;;;;;;13.65;9.20;;;16.50;47.70;;;;;;4997016;28;46282;-79
2022/01/16 07:41:24;;;;;;;13.15;8.77;;;16.50;47.80;;;;;;4997906;28;45236;-79
2022/01/16 07:43:54;;;;;;;15.55;9.75;;;16.50;47.50;;;;;;4986831;28;45337;-79
2022/01/16 07:46:27;;;;;;;13.45;9.15;;;16.50;47.70;;;;;;4985616;28;45328;-78
2022/01/16 07:48:54;;;;;;;13.88;9.25;;;16.50;47.40;;;;;;4990045;28;48185;-79
2022/01/16 07:51:22;;;;;;;13.57;9.00;;;16.50;47.80;;;;;;5000155;28;45209;-79
2022/01/16 07:53:53;;;;;;;14.45;8.77;;;16.60;47.50;;;;;;4996992;28;45320;-79
2022/01/16 07:56:21;;;;;;;13.18;8.48;;;16.60;48.10;;;;;;4995623;28;45115;-80
2022/01/16 07:58:50;;;;;;;16.23;10.15;;;16.60;47.80;;;;;;4995209;28;48579;-79
2022/01/16 08:01:18;;;;;;;12.75;8.88;;;16.60;47.90;;;;;;4992003;28;45916;-79
2022/01/16 08:03:48;;;;;;;14.65;8.98;;;16.60;47.50;;;;;;4992021;28;45201;-79
2022/01/16 08:06:19;;;;;;;14.55;8.85;;;16.50;47.60;;;;;;4993707;28;45315;-78
2022/01/16 08:08:49;;;;;;;15.80;9.45;;;16.50;47.80;;;;;;4992672;28;46699;-79
2022/01/16 08:11:18;;;;;;;13.25;8.55;;;16.40;47.70;;;;;;4991590;28;46363;-78
2022/01/16 08:13:52;;;;;;;16.40;9.38;;;16.40;47.70;;;;;;4992951;28;45178;-79
2022/01/16 08:16:19;;;;;;;14.07;9.10;;;16.40;47.70;;;;;;4989819;28;45307;-79
2022/01/16 08:18:48;;;;;;;13.82;8.43;;;16.40;47.70;;;;;;4991663;28;48307;-78
2022/01/16 08:21:17;;;;;;;13.85;9.20;;;16.40;47.80;;;;;;4998199;28;45463;-79
2022/01/16 08:23:45;;;;;;;16.35;9.50;;;16.40;47.80;;;;;;4992309;28;46639;-79
2022/01/16 08:26:12;;;;;;;15.55;9.73;;;16.40;47.80;;;;;;4990544;28;45507;-78
2022/01/16 08:28:40;;;;;;;15.23;9.68;;;16.40;47.90;;;;;;4991407;28;46492;-79
2022/01/16 08:31:08;;;;;;;15.48;9.27;;;16.40;48.10;;;;;;4990721;28;45392;-79
2022/01/16 08:33:38;;;;;;;14.68;9.65;;;16.40;47.70;;;;;;4992544;28;45156;-78
2022/01/16 08:36:07;;;;;;;15.35;9.23;;;16.40;47.70;;;;;;5000042;28;45302;-79
2022/01/16 08:38:36;;;;;;;16.23;9.38;;;16.60;47.90;;;;;;4996131;28;47347;-79
2022/01/16 08:41:04;;;;;;;15.50;9.88;;;16.40;47.60;;;;;;4986185;28;45330;-79
2022/01/16 08:43:33;;;;;;;17.65;9.85;;;16.50;47.60;;;;;;4992506;28;45333;-79
2022/01/16 08:46:01;;;;;;;17.02;9.20;;;16.50;47.50;;;;;;4989567;28;45246;-78
2022/01/16 08:48:30;;;;;;;15.48;9.32;;;16.50;48.10;;;;;;4988385;28;46162;-80
2022/01/16 08:50:58;;;;;;;17.02;10.63;;;16.50;47.90;;;;;;4980507;28;45354;-80
2022/01/16 08:53:27;;;;;;;15.95;9.73;;;16.50;47.70;;;;;;4992919;28;45170;-79
2022/01/16 08:55:57;;;;;;;16.10;9.38;;;16.50;47.90;;;;;;4993419;28;45420;-79
2022/01/16 08:58:26;;;;;;;13.85;8.75;;;16.50;47.40;;;;;;4991621;28;45601;-79
2022/01/16 09:00:54;;;;;;;13.48;8.90;;;16.50;47.60;;;;;;4991789;28;45396;-79
2022/01/16 09:03:24;;;;;;;15.32;9.35;;;16.50;47.60;;;;;;4990606;28;46104;-79
2022/01/16 09:05:56;;;;;;;14.55;8.95;;;16.50;47.70;;;;;;4989516;28;45461;-79
2022/01/16 09:08:27;;;;;;;18.25;9.13;;;16.50;47.60;;;;;;4990429;28;45702;-79
2022/01/16 09:10:56;;;;;;;15.35;9.68;;;16.50;47.60;;;;;;4982936;28;45376;-79
2022/01/16 09:13:24;;;;;;;14.93;9.02;;;16.50;47.60;;;;;;4990587;28;45264;-78
2022/01/16 09:15:52;;;;;;;13.55;9.20;;;16.50;47.70;;;;;;4988816;28;45498;-79
2022/01/16 09:18:25;;;;;;;13.82;8.43;;;16.50;47.60;;;;;;4990290;28;46220;-79
2022/01/16 09:20:52;;;;;;;14.20;8.80;;;16.50;47.50;;;;;;4998272;28;45402;-79
2022/01/16 09:23:22;;;;;;;15.38;9.10;;;16.50;47.60;;;;;;5002513;28;45237;-79
2022/01/16 09:25:55;;;;;;;15.32;9.18;;;16.50;47.70;;;;;;4990887;28;45308;-79
2022/01/16 09:28:23;;;;;;;14.80;9.52;;;16.50;47.70;;;;;;4994904;28;47793;-80
2022/01/16 09:30:59;;;;;;;14.18;8.25;;;16.40;48.00;;;;;;4985361;28;45214;-80
2022/01/16 09:33:34;;;;;;;14.73;8.88;;;16.50;48.80;;;;;;4990605;28;45343;-79
2022/01/16 09:36:05;;;;;;;15.55;8.93;;;16.50;48.20;;;;;;4991106;28;45305;-80
2022/01/16 09:38:37;;;;;;;15.25;8.98;;;16.50;48.10;;;;;;4992921;28;45519;-81
2022/01/16 09:41:06;;;;;;;12.30;7.97;;;16.50;48.10;;;;;;4989658;28;46348;-79
2022/01/16 09:43:37;;;;;;;13.77;8.73;;;16.50;48.00;;;;;;4990086;28;45462;-79
2022/01/16 09:46:08;;;;;;;13.73;8.52;;;16.50;48.00;;;;;;4985451;28;45353;-79
2022/01/16 09:48:37;;;;;;;13.73;8.95;;;16.50;48.10;;;;;;4981963;28;46391;-79
2022/01/16 09:51:06;;;;;;;13.75;8.13;;;16.50;47.90;;;;;;4989139;28;45328;-80
2022/01/16 09:53:35;;;;;;;12.73;8.18;;;16.50;48.20;;;;;;5005758;28;45248;-80
2022/01/16 09:56:04;;;;;;;14.48;8.73;;;16.50;47.90;;;;;;4994614;28;45348;-80
2022/01/16 09:58:36;;;;;;;14.80;8.27;;;16.50;48.10;;;;;;4990900;28;47134;-79
2022/01/16 10:01:04;;;;;;;14.68;8.70;;;16.50;48.40;;;;;;4990321;28;46060;-79
2022/01/16 10:03:42;;;;;;;13.13;8.35;;;16.50;48.10;;;;;;4989947;28;45313;-79
2022/01/16 10:06:15;;;;;;;13.38;8.30;;;16.50;48.10;;;;;;4992680;28;45234;-79
2022/01/16 10:08:49;;;;;;;16.10;9.45;;;16.50;48.30;;;;;;4988703;28;46325;-79
2022/01/16 10:11:29;;;;;;;16.05;9.68;;;16.50;48.50;;;;;;4984941;28;45222;-80
2022/01/16 10:14:01;;;;;;;14.38;9.10;;;16.50;48.20;;;;;;4991256;28;45138;-79
2022/01/16 10:16:31;;;;;;;13.73;8.82;;;16.50;48.30;;;;;;4989524;28;45741;-78
2022/01/16 10:18:59;;;;;;;13.82;8.57;;;16.50;48.10;;;;;;4988879;28;46582;-78
2022/01/16 10:21:39;;;;;;;15.50;9.85;;;16.50;48.20;;;;;;4991864;28;45836;-78
2022/01/16 10:24:17;;;;;;;15.90;8.88;;;16.50;48.10;;;;;;4980619;28;45076;-78
2022/01/16 10:26:45;;;;;;;16.90;9.05;;;16.50;48.10;;;;;;4978050;28;45446;-78
2022/01/16 10:29:22;;;;;;;16.08;9.52;;;16.50;48.20;;;;;;4987093;28;47148;-78
2022/01/16 10:31:56;;;;;;;18.02;10.23;;;16.50;48.20;;;;;;4979513;28;45395;-78
2022/01/16 10:34:26;;;;;;;13.18;8.30;;;16.50;48.30;;;;;;4985275;28;45419;-78
2022/01/16 10:36:55;;;;;;;14.68;8.80;;;16.50;48.30;;;;;;4992580;28;45233;-79
2022/01/16 10:39:24;;;;;;;14.82;9.18;;;16.50;48.50;;;;;;4990572;28;47362;-79
2022/01/16 10:42:17;;;;;;;17.13;9.50;;;16.50;48.40;;;;;;4980532;28;45518;-80
2022/01/16 10:45:01;;;;;;;14.38;9.13;;;16.60;48.50;;;;;;4982988;28;45355;-79
2022/01/16 10:47:34;;;;;;;17.38;9.23;;;16.50;48.40;;;;;;4987731;28;45583;-78
2022/01/16 10:50:09;;;;;;;15.32;9.02;;;16.50;48.60;;;;;;4987733;28;48409;-78
2022/01/16 10:52:48;;;;;;;15.38;9.00;;;16.60;48.50;;;;;;4989178;28;45386;-78
2022/01/16 10:55:17;;;;;;;17.17;9.57;;;16.50;48.50;;;;;;4980311;28;45229;-79
2022/01/16 10:57:47;;;;;;;16.35;9.63;;;16.50;48.50;;;;;;4985206;28;45321;-78
2022/01/16 11:00:22;;;;;;;17.67;9.68;;;16.50;48.60;;;;;;4979910;28;45845;-79
2022/01/16 11:02:55;;;;;;;15.50;8.85;;;16.50;48.70;;;;;;4986654;28;45230;-79
2022/01/16 11:05:28;;;;;;;16.17;9.30;;;16.50;49.00;;;;;;4988874;28;45584;-79
2022/01/16 11:08:03;;;;;;;17.70;9.95;;;16.50;49.00;;;;;;4987926;28;46032;-79
2022/01/16 11:10:34;;;;;;;17.48;9.23;;;16.50;48.70;;;;;;4981247;28;47857;-79
2022/01/16 11:13:06;;;;;;;15.55;9.43;;;16.50;48.60;;;;;;4987126;28;45686;-78
2022/01/16 11:15:36;;;;;;;16.80;9.95;;;16.50;48.70;;;;;;4990957;28;45313;-80
2022/01/16 11:18:05;;;;;;;15.95;9.68;;;16.50;48.90;;;;;;4990838;28;45571;-77
2022/01/16 11:20:36;;;;;;;16.63;9.70;;;16.50;48.70;;;;;;4989686;28;46578;-80
2022/01/16 11:23:14;;;;;;;17.17;9.98;;;16.50;50.80;;;;;;4997135;28;45171;-79
2022/01/16 11:25:45;;;;;;;17.95;10.00;;;16.50;48.80;;;;;;4987506;28;45190;-79
2022/01/16 11:28:22;;;;;;;18.80;10.70;;;16.50;48.70;;;;;;4987678;28;45115;-79
2022/01/16 11:30:53;;;;;;;16.92;9.90;;;16.50;48.70;;;;;;4985424;28;46218;-78
2022/01/16 11:33:21;;;;;;;16.83;9.27;;;16.60;48.80;;;;;;4994700;28;45235;-80
2022/01/16 11:35:54;;;;;;;18.60;10.73;;;16.50;50.70;;;;;;4992802;28;45364;-81
2022/01/16 11:38:23;;;;;;;17.05;9.18;;;16.60;48.80;;;;;;4989767;28;45192;-79
2022/01/16 11:40:51;;;;;;;17.63;9.48;;;16.60;48.80;;;;;;4986473;28;48130;-79
2022/01/16 11:43:31;;;;;;;14.82;8.43;;;16.50;48.70;;;;;;4993143;28;45747;-79
2022/01/16 11:46:12;;;;;;;15.32;9.15;;;16.60;49.20;;;;;;4989083;28;45667;-80
2022/01/16 11:48:50;;;;;;;14.82;8.68;;;16.60;49.50;;;;;;4988390;28;45359;-79
2022/01/16 11:51:52;;;;;;;15.10;8.95;;;16.60;49.70;;;;;;4986951;28;46502;-78
2022/01/16 11:54:24;;;;;;;12.30;8.15;;;16.60;49.80;;;;;;4991379;28;46068;-79
2022/01/16 11:57:06;;;;;;;15.05;8.65;;;16.60;49.50;;;;;;4981966;28;45182;-79
2022/01/16 11:59:41;;;;;;;12.55;8.02;;;16.60;49.50;;;;;;4991580;28;45253;-79
2022/01/16 12:02:22;;;;;;;13.65;7.85;;;16.60;49.70;;;;;;4990571;28;47407;-79
2022/01/16 12:04:55;;;;;;;12.48;7.30;;;16.60;50.10;;;;;;4988953;28;45590;-79
2022/01/16 12:07:45;;;;;;;12.70;7.45;;;16.50;50.10;;;;;;4985979;28;45474;-79
2022/01/16 12:10:13;;;;;;;13.95;7.63;;;16.50;50.40;;;;;;4988645;28;45479;-79
2022/01/16 12:12:41;;;;;;;14.85;8.43;;;16.50;50.00;;;;;;4990327;28;45331;-78
2022/01/16 12:15:10;;;;;;;12.07;7.43;;;16.50;49.80;;;;;;4985918;28;45346;-78
2022/01/16 12:17:48;;;;;;;14.80;7.70;;;16.50;49.70;;;;;;4986001;28;45305;-78
2022/01/16 12:20:25;;;;;;;14.02;7.63;;;16.50;50.10;;;;;;4988704;28;45323;-79
2022/01/16 12:22:55;;;;;;;11.85;6.95;;;16.50;50.70;;;;;;4990715;28;47173;-78
2022/01/16 12:25:24;;;;;;;12.00;7.47;;;16.50;50.70;;;;;;4988262;28;46201;-77
2022/01/16 12:28:00;;;;;;;13.60;7.65;;;16.50;50.70;;;;;;4991985;28;45358;-82
2022/01/16 12:30:45;;;;;;;13.02;7.75;;;16.70;50.70;;;;;;4988137;28;45455;-80
2022/01/16 12:33:31;;;;;;;13.98;7.88;;;16.60;49.70;;;;;;4986471;28;47474;-79
2022/01/16 12:36:10;;;;;;;12.68;7.32;;;16.60;49.90;;;;;;4987249;28;46107;-80
2022/01/16 12:39:04;;;;;;;11.32;6.97;;;16.70;49.80;;;;;;4990037;28;45372;-81
2022/01/16 12:41:36;;;;;;;10.98;6.18;;;17.30;50.80;;;;;;4986496;28;45215;-80
2022/01/16 12:44:06;;;;;;;11.57;6.70;;;16.70;50.60;;;;;;4990375;28;46452;-80
2022/01/16 12:46:36;;;;;;;12.07;6.75;;;16.70;51.10;;;;;;4988376;28;45323;-79
2022/01/16 12:49:08;;;;;;;10.90;6.32;;;16.90;51.10;;;;;;4989979;28;45298;-79
2022/01/16 12:51:37;;;;;;;10.05;6.05;;;16.70;51.00;;;;;;4989688;28;45317;-79
2022/01/16 12:54:07;;;;;;;10.68;6.32;;;16.80;51.10;;;;;;4996442;28;48307;-79
2022/01/16 12:56:37;;;;;;;11.75;6.35;;;16.80;51.10;;;;;;4989441;28;45213;-80
2022/01/16 12:59:14;;;;;;;8.70;5.72;;;16.70;51.00;;;;;;4990985;28;45114;-79
2022/01/16 13:01:51;;;;;;;10.85;6.35;;;16.70;50.90;;;;;;4988259;28;45228;-79
2022/01/16 13:04:36;;;;;;;10.65;6.38;;;16.70;51.00;;;;;;5004153;28;48814;-78
2022/01/16 13:07:10;;;;;;;10.40;6.55;;;16.70;51.00;;;;;;4989664;28;45436;-78
2022/01/16 13:09:38;;;;;;;10.32;6.40;;;16.70;51.00;;;;;;4989541;28;45189;-78
2022/01/16 13:12:07;;;;;;;10.38;6.57;;;16.70;51.00;;;;;;4989911;28;45489;-78
2022/01/16 13:14:38;;;;;;;9.63;6.22;;;16.70;51.00;;;;;;4988774;28;46346;-77
2022/01/16 13:17:10;;;;;;;9.50;5.50;;;16.70;51.00;;;;;;4989639;28;45861;-77
2022/01/16 13:19:50;;;;;;;9.85;5.90;;;16.70;51.00;;;;;;5001762;28;45203;-81
2022/01/16 13:22:23;;;;;;;10.10;6.38;;;16.70;52.90;;;;;;5007001;28;45141;-79
2022/01/16 13:24:58;;;;;;;10.60;6.15;;;16.70;51.00;;;;;;4993232;28;46573;-78
2022/01/16 13:27:27;;;;;;;12.35;6.20;;;16.70;51.10;;;;;;4996297;28;45323;-78
2022/01/16 13:29:59;;;;;;;10.38;6.38;;;16.70;51.00;;;;;;5005190;28;45237;-80
2022/01/16 13:32:29;;;;;;;10.13;5.68;;;16.80;51.10;;;;;;4991178;28;45343;-78
2022/01/16 13:35:02;;;;;;;9.10;5.88;;;16.80;51.40;;;;;;4988739;28;46311;-79
2022/01/16 13:37:31;;;;;;;10.13;6.15;;;16.80;51.10;;;;;;4975929;28;45286;-78
2022/01/16 13:40:00;;;;;;;8.50;5.53;;;16.80;51.10;;;;;;4989594;28;45315;-78